createdAt,value
2023-05-09T00:01:13.019Z,18.77
2023-05-09T00:03:40.637Z,18.75
2023-05-09T00:06:07.469Z,15.93
2023-05-09T00:08:34.053Z,16.50
2023-05-09T00:11:01.730Z,15.57
2023-05-09T00:13:28.609Z,16.23
2023-05-09T00:15:57.391Z,16.98
2023-05-09T00:18:24.255Z,15.57
2023-05-09T00:20:50.967Z,16.45
2023-05-09T00:23:18.021Z,14.60
2023-05-09T00:25:44.699Z,14.25
2023-05-09T00:28:11.403Z,15.32
2023-05-09T00:30:38.011Z,14.13
2023-05-09T00:33:04.724Z,13.80
2023-05-09T00:35:32.346Z,15.73
2023-05-09T00:37:59.482Z,15.02
2023-05-09T00:40:26.434Z,15.43
2023-05-09T00:42:53.107Z,20.38
2023-05-09T00:45:19.819Z,17.50
2023-05-09T00:47:46.605Z,16.85
2023-05-09T00:50:13.896Z,17.92
2023-05-09T00:52:41.606Z,18.77
2023-05-09T00:55:09.286Z,17.08
2023-05-09T00:57:36.645Z,15.43
2023-05-09T01:00:04.648Z,17.13
2023-05-09T01:02:32.655Z,16.13
2023-05-09T01:04:59.350Z,16.40
2023-05-09T01:07:51.333Z,16.17
2023-05-09T01:10:46.800Z,14.68
2023-05-09T01:13:28.892Z,13.98
2023-05-09T01:16:08.808Z,15.13
2023-05-09T01:19:02.970Z,15.70
2023-05-09T01:21:31.645Z,13.95
2023-05-09T01:24:07.507Z,15.07
2023-05-09T01:27:01.949Z,14.63
2023-05-09T01:29:37.357Z,15.27
2023-05-09T01:32:09.657Z,14.85
2023-05-09T01:34:38.955Z,15.45
2023-05-09T01:37:07.184Z,16.27
2023-05-09T01:39:35.751Z,16.38
2023-05-09T01:42:04.655Z,16.45
2023-05-09T01:44:38.874Z,17.85
2023-05-09T01:47:07.806Z,17.85
2023-05-09T01:49:36.732Z,18.95
2023-05-09T01:52:07.229Z,17.38
2023-05-09T01:54:35.369Z,18.42
2023-05-09T01:57:03.912Z,17.10
2023-05-09T01:59:33.299Z,17.40
2023-05-09T02:02:00.942Z,16.17
2023-05-09T02:04:29.282Z,15.88
2023-05-09T02:06:57.942Z,16.77
2023-05-09T02:09:24.632Z,21.13
2023-05-09T02:11:51.369Z,15.95
2023-05-09T02:14:18.037Z,21.63
2023-05-09T02:16:44.728Z,16.48
2023-05-09T02:19:11.489Z,16.10
2023-05-09T02:21:38.291Z,16.38
2023-05-09T02:24:05.387Z,17.13
2023-05-09T02:26:32.302Z,15.20
2023-05-09T02:28:59.348Z,14.27
2023-05-09T02:31:29.784Z,16.65
2023-05-09T02:33:57.384Z,15.98
2023-05-09T02:36:24.623Z,14.73
2023-05-09T02:38:51.668Z,15.52
2023-05-09T02:41:18.317Z,15.13
2023-05-09T02:43:46.091Z,15.93
2023-05-09T02:46:12.942Z,16.83
2023-05-09T02:48:39.671Z,17.50
2023-05-09T02:51:06.394Z,16.02
2023-05-09T02:53:33.012Z,15.50
2023-05-09T02:55:59.633Z,16.30
2023-05-09T02:58:26.447Z,15.98
2023-05-09T03:00:53.123Z,16.08
2023-05-09T03:03:19.856Z,17.05
2023-05-09T03:05:46.570Z,15.90
2023-05-09T03:08:13.216Z,16.33
2023-05-09T03:10:39.897Z,16.98
2023-05-09T03:13:06.735Z,15.80
2023-05-09T03:15:33.462Z,16.05
2023-05-09T03:18:00.246Z,16.20
2023-05-09T03:20:27.751Z,15.77
2023-05-09T03:22:54.514Z,19.60
2023-05-09T03:25:21.360Z,15.60
2023-05-09T03:27:48.441Z,16.45
2023-05-09T03:30:15.209Z,17.90
2023-05-09T03:32:41.855Z,15.05
2023-05-09T03:35:08.783Z,15.73
2023-05-09T03:37:35.561Z,16.13
2023-05-09T03:40:02.207Z,16.00
2023-05-09T03:42:28.830Z,16.10
2023-05-09T03:44:55.728Z,16.13
2023-05-09T03:47:22.416Z,16.85
2023-05-09T03:49:49.298Z,16.92
2023-05-09T03:52:15.986Z,15.80
2023-05-09T03:54:42.612Z,14.95
2023-05-09T03:57:09.229Z,15.80
2023-05-09T03:59:36.010Z,15.05
2023-05-09T04:02:03.536Z,15.85
2023-05-09T04:04:30.424Z,16.88
2023-05-09T04:06:57.203Z,15.65
2023-05-09T04:09:23.986Z,15.20
2023-05-09T04:11:50.611Z,14.68
2023-05-09T04:14:17.221Z,14.60
2023-05-09T04:16:43.847Z,15.13
2023-05-09T04:19:10.721Z,13.98
2023-05-09T04:21:37.879Z,13.88
2023-05-09T04:24:04.635Z,13.48
2023-05-09T04:26:31.585Z,14.05
2023-05-09T04:28:58.167Z,14.52
2023-05-09T04:31:24.928Z,16.88
2023-05-09T04:33:52.313Z,15.90
2023-05-09T04:36:18.923Z,14.88
2023-05-09T04:38:46.495Z,14.80
2023-05-09T04:41:13.169Z,15.93
2023-05-09T04:43:39.811Z,16.83
2023-05-09T04:46:07.794Z,13.60
2023-05-09T04:48:35.705Z,15.93
2023-05-09T04:51:02.630Z,14.05
2023-05-09T04:53:29.653Z,14.90
2023-05-09T04:55:56.472Z,13.75
2023-05-09T04:58:23.084Z,14.68
2023-05-09T05:00:50.052Z,18.55
2023-05-09T05:03:18.026Z,17.77
2023-05-09T05:05:45.053Z,17.35
2023-05-09T05:08:11.904Z,14.27
2023-05-09T05:10:38.542Z,16.42
2023-05-09T05:13:05.230Z,18.50
2023-05-09T05:15:31.863Z,19.42
2023-05-09T05:17:58.550Z,21.65
2023-05-09T05:20:25.157Z,20.38
2023-05-09T05:22:51.789Z,19.98
2023-05-09T05:25:18.887Z,18.05
2023-05-09T05:27:45.571Z,21.17
2023-05-09T05:30:13.864Z,18.67
2023-05-09T05:32:40.737Z,19.75
2023-05-09T05:35:07.768Z,20.30
2023-05-09T05:37:34.333Z,19.75
2023-05-09T05:40:01.264Z,19.52
2023-05-09T05:42:27.845Z,23.05
2023-05-09T05:44:54.516Z,21.85
2023-05-09T05:47:21.086Z,23.00
2023-05-09T05:49:48.072Z,21.05
2023-05-09T05:52:14.783Z,21.95
2023-05-09T05:54:41.585Z,21.33
2023-05-09T05:57:08.414Z,22.70
2023-05-09T05:59:35.088Z,22.10
2023-05-09T06:02:01.778Z,22.00
2023-05-09T06:04:29.042Z,22.73
2023-05-09T06:06:55.901Z,22.23
2023-05-09T06:09:22.511Z,23.48
2023-05-09T06:11:49.528Z,23.02
2023-05-09T06:14:16.203Z,21.48
2023-05-09T06:16:42.934Z,27.15
2023-05-09T06:19:09.636Z,26.73
2023-05-09T06:21:36.284Z,22.33
2023-05-09T06:24:11.799Z,23.05
2023-05-09T06:26:43.668Z,25.38
2023-05-09T06:29:10.968Z,22.52
2023-05-09T06:31:39.150Z,23.70
2023-05-09T06:34:06.116Z,24.85
2023-05-09T06:36:33.650Z,24.88
2023-05-09T06:39:00.725Z,24.35
2023-05-09T06:41:27.839Z,25.83
2023-05-09T06:43:54.471Z,24.08
2023-05-09T06:46:21.637Z,24.60
2023-05-09T06:48:48.433Z,24.35
2023-05-09T06:51:15.066Z,23.45
2023-05-09T06:53:41.648Z,23.90
2023-05-09T06:56:08.352Z,23.48
2023-05-09T06:58:35.020Z,24.45
2023-05-09T07:01:01.705Z,22.00
2023-05-09T07:03:28.325Z,23.73
2023-05-09T07:05:57.469Z,23.50
2023-05-09T07:08:24.353Z,21.63
2023-05-09T07:10:51.163Z,20.27
2023-05-09T07:13:17.899Z,23.13
2023-05-09T07:15:44.829Z,23.38
2023-05-09T07:18:12.229Z,22.00
2023-05-09T07:20:39.149Z,21.95
2023-05-09T07:23:06.277Z,19.98
2023-05-09T07:25:33.739Z,21.45
2023-05-09T07:28:00.503Z,23.60
2023-05-09T07:30:27.264Z,22.13
2023-05-09T07:32:54.010Z,19.38
2023-05-09T07:35:21.046Z,18.30
2023-05-09T07:37:47.658Z,19.27
2023-05-09T07:40:14.786Z,16.65
2023-05-09T07:42:45.152Z,15.30
2023-05-09T07:45:11.996Z,19.03
2023-05-09T07:47:38.765Z,16.52
2023-05-09T07:50:05.975Z,16.83
2023-05-09T07:52:32.616Z,14.88
2023-05-09T07:54:59.702Z,17.38
2023-05-09T07:57:26.794Z,20.35
2023-05-09T07:59:53.463Z,17.63
2023-05-09T08:02:20.176Z,16.52
2023-05-09T08:04:48.954Z,16.83
2023-05-09T08:07:15.874Z,13.13
2023-05-09T08:09:42.503Z,14.70
2023-05-09T08:12:09.154Z,14.98
2023-05-09T08:14:35.766Z,13.77
2023-05-09T08:17:02.434Z,14.02
2023-05-09T08:19:29.174Z,14.77
2023-05-09T08:21:56.026Z,13.73
2023-05-09T08:24:22.703Z,13.05
2023-05-09T08:26:49.398Z,11.73
2023-05-09T08:29:17.492Z,12.10
2023-05-09T08:31:44.295Z,11.40
2023-05-09T08:34:11.641Z,11.52
2023-05-09T08:36:38.263Z,11.15
2023-05-09T08:39:04.856Z,10.57
2023-05-09T08:41:36.257Z,9.40
2023-05-09T08:44:03.575Z,10.10
2023-05-09T08:46:39.875Z,9.98
2023-05-09T08:49:08.663Z,9.75
2023-05-09T08:51:39.916Z,8.38
2023-05-09T08:54:06.610Z,8.77
2023-05-09T08:56:35.339Z,8.98
2023-05-09T08:59:02.118Z,8.98
2023-05-09T09:01:29.406Z,8.02
2023-05-09T09:03:56.550Z,8.50
2023-05-09T09:06:25.857Z,9.20
2023-05-09T09:08:54.935Z,7.47
2023-05-09T09:11:22.723Z,7.88
2023-05-09T09:13:53.039Z,6.80
2023-05-09T09:16:22.064Z,7.30
2023-05-09T09:18:53.606Z,8.10
2023-05-09T09:21:21.092Z,6.80
2023-05-09T09:23:48.971Z,5.75
2023-05-09T09:26:16.343Z,6.10
2023-05-09T09:28:43.217Z,6.93
2023-05-09T09:31:24.023Z,5.95
2023-05-09T09:36:29.213Z,5.38
2023-05-09T09:39:00.673Z,5.88
2023-05-09T09:41:38.766Z,6.18
2023-05-09T09:44:12.943Z,5.70
2023-05-09T09:46:47.107Z,5.07
2023-05-09T09:49:15.091Z,5.13
2023-05-09T09:51:42.263Z,5.22
2023-05-09T09:54:10.709Z,5.68
2023-05-09T09:57:03.957Z,4.60
2023-05-09T09:59:30.571Z,4.80
2023-05-09T10:02:07.946Z,4.85
2023-05-09T10:04:42.642Z,4.72
2023-05-09T10:07:14.331Z,5.63
2023-05-09T10:09:42.469Z,4.90
2023-05-09T10:12:09.478Z,5.25
2023-05-09T10:14:38.640Z,5.80
2023-05-09T10:17:06.116Z,5.30
2023-05-09T10:19:33.599Z,4.88
2023-05-09T10:22:08.193Z,4.53
2023-05-09T10:24:35.601Z,4.45
2023-05-09T10:27:06.948Z,4.95
2023-05-09T10:29:41.579Z,4.32
2023-05-09T10:32:31.549Z,4.57
2023-05-09T10:35:04.947Z,4.87
2023-05-09T10:37:33.386Z,4.50
2023-05-09T10:40:03.010Z,4.40
2023-05-09T10:42:30.699Z,4.40
2023-05-09T10:44:57.823Z,4.20
2023-05-09T10:47:28.048Z,4.40
2023-05-09T10:49:55.324Z,4.22
2023-05-09T10:52:22.931Z,4.80
2023-05-09T10:55:01.781Z,5.22
2023-05-09T10:57:30.014Z,5.07
2023-05-09T10:59:57.983Z,5.03
2023-05-09T11:02:31.119Z,4.30
2023-05-09T11:05:17.570Z,4.45
2023-05-09T11:07:44.444Z,4.30
2023-05-09T11:10:19.485Z,4.05
2023-05-09T11:12:58.290Z,4.80
2023-05-09T11:15:27.433Z,4.20
2023-05-09T11:18:12.945Z,4.60
2023-05-09T11:20:44.466Z,4.50
2023-05-09T11:23:17.373Z,4.82
2023-05-09T11:25:47.274Z,4.45
2023-05-09T11:28:30.420Z,5.03
2023-05-09T11:31:11.978Z,5.78
2023-05-09T11:33:39.709Z,5.00
2023-05-09T11:36:29.560Z,4.60
2023-05-09T11:39:06.505Z,4.47
2023-05-09T11:41:45.750Z,4.75
2023-05-09T11:44:14.546Z,4.30
2023-05-09T11:46:41.127Z,4.70
2023-05-09T11:49:10.081Z,4.82
2023-05-09T11:51:38.315Z,4.32
2023-05-09T11:54:08.991Z,4.25
2023-05-09T11:56:36.391Z,4.40
2023-05-09T11:59:03.143Z,4.50
2023-05-09T12:01:30.170Z,4.70
2023-05-09T12:03:59.095Z,4.22
2023-05-09T12:06:30.121Z,4.00
2023-05-09T12:08:59.525Z,4.38
2023-05-09T12:11:26.224Z,4.22
2023-05-09T12:13:53.367Z,4.70
2023-05-09T12:16:21.311Z,4.80
2023-05-09T12:18:49.969Z,4.85
2023-05-09T12:21:17.665Z,4.22
2023-05-09T12:23:45.661Z,4.20
2023-05-09T12:26:12.481Z,3.80
2023-05-09T12:28:39.889Z,4.00
2023-05-09T12:31:07.354Z,3.80
2023-05-09T12:33:34.119Z,4.15
2023-05-09T12:36:04.852Z,3.97
2023-05-09T12:43:41.825Z,3.92
2023-05-09T12:46:08.868Z,4.20
2023-05-09T12:48:38.309Z,3.50
2023-05-09T12:51:08.164Z,3.42
2023-05-09T12:53:41.211Z,4.77
2023-05-09T12:56:16.988Z,3.85
2023-05-09T12:58:51.878Z,4.25
2023-05-09T13:01:19.793Z,3.70
2023-05-09T13:04:02.331Z,3.53
2023-05-09T13:06:29.014Z,3.85
2023-05-09T13:09:01.857Z,3.45
2023-05-09T13:11:29.829Z,3.17
2023-05-09T13:13:56.507Z,3.28
2023-05-09T13:16:23.521Z,3.55
2023-05-09T13:18:50.274Z,3.47
2023-05-09T13:21:16.900Z,3.72
2023-05-09T13:23:45.430Z,3.95
2023-05-09T13:26:12.270Z,3.70
2023-05-09T13:28:38.917Z,4.15
2023-05-09T13:31:05.704Z,4.05
2023-05-09T13:33:33.083Z,4.00
2023-05-09T13:36:00.186Z,3.92
2023-05-09T13:38:30.726Z,4.15
2023-05-09T13:40:57.562Z,3.80
2023-05-09T13:43:24.111Z,4.63
2023-05-09T13:45:50.768Z,4.70
2023-05-09T13:48:17.436Z,4.28
2023-05-09T13:50:44.680Z,3.95
2023-05-09T13:53:11.234Z,4.00
2023-05-09T13:55:38.018Z,4.40
2023-05-09T13:58:04.598Z,3.83
2023-05-09T14:00:31.189Z,4.32
2023-05-09T14:02:57.815Z,4.78
2023-05-09T14:05:25.055Z,4.43
2023-05-09T14:07:53.101Z,5.57
2023-05-09T14:10:20.220Z,4.82
2023-05-09T14:12:47.581Z,4.97
2023-05-09T14:15:14.677Z,6.13
2023-05-09T14:17:43.855Z,5.60
2023-05-09T14:20:14.849Z,5.95
2023-05-09T14:22:42.779Z,6.10
2023-05-09T14:25:10.419Z,5.95
2023-05-09T14:27:37.475Z,5.85
2023-05-09T14:30:06.074Z,6.95
2023-05-09T14:32:32.933Z,6.53
2023-05-09T14:34:59.656Z,6.35
2023-05-09T14:37:26.330Z,6.10
2023-05-09T14:39:53.128Z,7.00
2023-05-09T14:42:19.820Z,7.80
2023-05-09T14:44:47.298Z,7.32
2023-05-09T14:47:14.057Z,7.60
2023-05-09T14:49:41.399Z,8.00
2023-05-09T14:52:08.481Z,8.35
2023-05-09T14:54:35.662Z,8.07
2023-05-09T14:57:04.679Z,7.78
2023-05-09T14:59:31.637Z,7.63
2023-05-09T15:01:59.417Z,8.60
2023-05-09T15:04:30.453Z,8.13
2023-05-09T15:06:58.811Z,8.38
2023-05-09T15:09:25.791Z,8.70
2023-05-09T15:11:52.436Z,8.32
2023-05-09T15:14:19.021Z,9.38
2023-05-09T15:16:45.883Z,8.23
2023-05-09T15:19:13.275Z,9.70
2023-05-09T15:21:40.420Z,9.00
2023-05-09T15:24:07.691Z,8.73
2023-05-09T15:26:34.525Z,8.07
2023-05-09T15:29:01.086Z,7.47
2023-05-09T15:31:32.786Z,8.35
2023-05-09T15:34:00.917Z,7.60
2023-05-09T15:36:30.032Z,7.28
2023-05-09T15:38:56.759Z,6.78
2023-05-09T15:41:25.177Z,8.18
2023-05-09T15:43:53.483Z,8.27
2023-05-09T15:46:20.254Z,7.40
2023-05-09T15:48:47.342Z,8.07
2023-05-09T15:51:13.984Z,7.25
2023-05-09T15:53:40.720Z,7.03
2023-05-09T15:56:08.342Z,6.93
2023-05-09T15:58:35.196Z,8.02
2023-05-09T16:01:07.881Z,6.47
2023-05-09T16:03:34.913Z,7.22
2023-05-09T16:06:01.704Z,7.35
2023-05-09T16:08:28.574Z,6.35
2023-05-09T16:10:55.345Z,6.20
2023-05-09T16:13:22.426Z,7.38
2023-05-09T16:15:50.106Z,6.32
2023-05-09T16:18:16.829Z,9.43
2023-05-09T16:20:44.085Z,7.13
2023-05-09T16:23:11.186Z,11.32
2023-05-09T16:25:37.764Z,10.00
2023-05-09T16:28:04.952Z,6.70
2023-05-09T16:30:31.673Z,6.60
2023-05-09T16:32:58.280Z,6.45
2023-05-09T16:35:24.940Z,5.90
2023-05-09T16:37:51.622Z,7.25
2023-05-09T16:40:20.013Z,6.22
2023-05-09T16:42:46.607Z,6.05
2023-05-09T16:45:13.252Z,5.70
2023-05-09T16:47:39.977Z,6.25
2023-05-09T16:50:07.395Z,6.65
2023-05-09T16:52:34.123Z,5.85
2023-05-09T16:55:00.988Z,4.63
2023-05-09T16:57:27.613Z,4.10
2023-05-09T16:59:54.377Z,3.20
2023-05-09T17:02:21.091Z,3.28
2023-05-09T17:04:47.777Z,3.58
2023-05-09T17:07:15.616Z,2.80
2023-05-09T17:09:43.225Z,2.85
2023-05-09T17:12:16.461Z,3.20
2023-05-09T17:14:43.191Z,4.63
2023-05-09T17:17:10.481Z,3.92
2023-05-09T17:19:38.271Z,2.30
2023-05-09T17:22:06.267Z,1.92
2023-05-09T17:24:32.914Z,2.35
2023-05-09T17:27:00.167Z,2.20
2023-05-09T17:29:31.543Z,2.00
2023-05-09T17:32:00.997Z,1.45
2023-05-09T17:34:29.021Z,1.60
2023-05-09T17:36:56.344Z,1.50
2023-05-09T17:39:23.429Z,1.50
2023-05-09T17:41:50.246Z,1.40
2023-05-09T17:44:17.024Z,1.27
2023-05-09T17:46:44.131Z,1.60
2023-05-09T17:49:13.931Z,1.73
2023-05-09T17:51:40.918Z,1.52
2023-05-09T17:54:07.820Z,1.90
2023-05-09T17:56:34.485Z,1.70
2023-05-09T17:59:01.752Z,1.48
2023-05-09T18:01:28.867Z,1.80
2023-05-09T18:03:55.977Z,1.55
2023-05-09T18:06:22.959Z,1.83
2023-05-09T18:08:49.738Z,1.38
2023-05-09T18:11:16.398Z,1.65
2023-05-09T18:13:42.992Z,1.80
2023-05-09T18:16:09.737Z,1.50
2023-05-09T18:18:36.650Z,1.65
2023-05-09T18:21:05.615Z,1.58
2023-05-09T18:23:32.607Z,1.40
2023-05-09T18:25:59.811Z,1.63
2023-05-09T18:28:27.813Z,1.77
2023-05-09T18:30:56.958Z,1.70
2023-05-09T18:33:26.452Z,1.80
2023-05-09T18:35:55.418Z,1.90
2023-05-09T18:38:22.857Z,1.90
2023-05-09T18:40:51.798Z,1.98
2023-05-09T18:43:20.983Z,1.90
2023-05-09T18:45:48.204Z,1.77
2023-05-09T18:48:16.996Z,2.20
2023-05-09T18:50:44.449Z,2.22
2023-05-09T18:53:11.252Z,2.38
2023-05-09T18:55:38.121Z,2.25
2023-05-09T18:58:05.074Z,1.95
2023-05-09T19:00:31.765Z,2.47
2023-05-09T19:02:58.368Z,2.47
2023-05-09T19:05:27.405Z,2.67
2023-05-09T19:07:54.246Z,2.90
2023-05-09T19:10:21.051Z,2.55
2023-05-09T19:12:49.076Z,2.85
2023-05-09T19:15:16.045Z,2.42
2023-05-09T19:17:42.671Z,2.33
2023-05-09T19:20:10.091Z,2.50
2023-05-09T19:22:36.711Z,2.50
2023-05-09T19:25:03.315Z,2.53
2023-05-09T19:27:29.963Z,1.95
2023-05-09T19:29:56.613Z,2.20
2023-05-09T19:32:23.358Z,2.20
2023-05-09T19:34:50.193Z,2.20
2023-05-09T19:37:16.834Z,2.00
2023-05-09T19:39:43.506Z,2.10
2023-05-09T19:42:10.303Z,2.60
2023-05-09T19:44:37.085Z,2.45
2023-05-09T19:47:05.272Z,2.53
2023-05-09T19:49:32.722Z,2.30
2023-05-09T19:51:59.365Z,2.33
2023-05-09T19:54:27.208Z,2.40
2023-05-09T19:56:54.049Z,2.20
2023-05-09T19:59:20.718Z,2.20
2023-05-09T20:01:47.402Z,2.20
2023-05-09T20:04:14.213Z,1.85
2023-05-09T20:06:41.337Z,2.03
2023-05-09T20:09:07.949Z,2.20
2023-05-09T20:11:34.707Z,2.00
2023-05-09T20:14:01.468Z,1.63
2023-05-09T20:16:28.526Z,2.40
2023-05-09T20:18:55.629Z,1.90
2023-05-09T20:21:22.331Z,2.00
2023-05-09T20:23:49.004Z,2.22
2023-05-09T20:26:15.834Z,2.40
2023-05-09T20:28:42.843Z,2.38
2023-05-09T20:31:18.092Z,2.40
2023-05-09T20:33:44.828Z,2.58
2023-05-09T20:36:11.603Z,2.47
2023-05-09T20:38:38.214Z,2.30
2023-05-09T20:41:04.912Z,2.70
2023-05-09T20:43:31.661Z,2.55
2023-05-09T20:45:58.436Z,2.75
2023-05-09T20:48:25.929Z,3.00
2023-05-09T20:50:52.512Z,2.95
2023-05-09T20:53:19.127Z,2.80
2023-05-09T20:55:46.367Z,2.70
2023-05-09T20:58:14.880Z,2.72
2023-05-09T21:00:41.512Z,2.55
2023-05-09T21:03:10.234Z,2.90
2023-05-09T21:05:37.041Z,2.85
2023-05-09T21:08:03.848Z,2.92
2023-05-09T21:10:30.625Z,3.00
2023-05-09T21:12:57.744Z,2.75
2023-05-09T21:15:24.729Z,3.15
2023-05-09T21:17:51.383Z,2.97
2023-05-09T21:20:18.353Z,3.30
2023-05-09T21:22:45.100Z,3.35
2023-05-09T21:25:12.610Z,3.10
2023-05-09T21:27:39.201Z,3.70
2023-05-09T21:30:06.648Z,3.58
2023-05-09T21:32:33.617Z,2.95
2023-05-09T21:35:02.005Z,3.25
2023-05-09T21:37:28.949Z,2.75
2023-05-09T21:39:55.673Z,3.08
2023-05-09T21:42:23.953Z,2.85
2023-05-09T21:44:50.615Z,2.83
2023-05-09T21:47:17.465Z,2.47
2023-05-09T21:49:44.062Z,2.80
2023-05-09T21:52:10.653Z,2.42
2023-05-09T21:54:37.317Z,2.85
2023-05-09T21:57:03.916Z,2.28
2023-05-09T21:59:30.725Z,2.20
2023-05-09T22:01:57.400Z,2.22
2023-05-09T22:04:24.010Z,2.10
2023-05-09T22:06:50.654Z,2.50
2023-05-09T22:09:17.968Z,2.05
2023-05-09T22:11:44.567Z,2.25
2023-05-09T22:14:11.282Z,2.40
2023-05-09T22:16:38.172Z,2.03
2023-05-09T22:19:05.028Z,2.17
2023-05-09T22:21:31.663Z,2.47
2023-05-09T22:23:58.391Z,1.95
2023-05-09T22:26:25.000Z,2.05
2023-05-09T22:28:51.679Z,2.10
2023-05-09T22:31:18.401Z,2.25
2023-05-09T22:33:45.084Z,2.60
2023-05-09T22:36:11.712Z,2.67
2023-05-09T22:38:38.663Z,2.72
2023-05-09T22:41:05.256Z,2.30
2023-05-09T22:43:38.810Z,1.98
2023-05-09T22:46:06.485Z,2.53
2023-05-09T22:48:33.115Z,2.35
2023-05-09T22:50:59.727Z,2.40
2023-05-09T22:53:26.382Z,2.35
2023-05-09T22:55:54.648Z,2.08
2023-05-09T22:58:21.295Z,2.55
2023-05-09T23:00:48.014Z,2.30
2023-05-09T23:03:14.760Z,2.50
2023-05-09T23:05:42.630Z,2.30
2023-05-09T23:08:09.752Z,2.40
2023-05-09T23:10:36.379Z,2.53
2023-05-09T23:13:04.673Z,2.45
2023-05-09T23:15:31.362Z,2.63
2023-05-09T23:17:58.471Z,2.60
2023-05-09T23:20:26.167Z,2.05
2023-05-09T23:22:52.945Z,2.50
2023-05-09T23:25:19.626Z,2.00
2023-05-09T23:27:46.940Z,2.38
2023-05-09T23:30:13.895Z,2.10
2023-05-09T23:32:40.657Z,2.17
2023-05-09T23:35:07.450Z,2.22
2023-05-09T23:37:34.145Z,2.55
2023-05-09T23:40:00.986Z,2.65
2023-05-09T23:42:27.574Z,2.53
2023-05-09T23:44:54.508Z,2.30
2023-05-09T23:47:21.139Z,2.58
2023-05-09T23:49:47.808Z,2.40
2023-05-09T23:52:15.168Z,2.63
2023-05-09T23:54:41.829Z,2.47
2023-05-09T23:57:08.389Z,2.65
2023-05-09T23:59:35.016Z,2.50
